Huvudsida
METAR-TAF:

METAR-TAF

Flygplatser :

Frontone, Italien

latitud: 43-31N, longitud: 012-44E, höjd: 570 m

Aktuellt väderrapport

Denna rapport gjordes för 25 minuter sedan, klockan 03:55 UTC
Vind 4 kt från syd
Temperatur 18°C
Fuktighet 68%
Tryck 1014 hPa
Sikt 10 km eller mer
Inga moln under 1 500 m eller inga cumulonimbus

METAR: LIVF 190355Z 17004KT CAVOK 18/12 Q1014 RMK SKC MON LIB VAL NIL VIS MIN 9999

Tid: 06:20 (04:20 UTC)


TAF: saknas

Aktuella väderrapporter och prognoser från 4000 flygplatser (METAR- och TAF-rapporter).

De tillgängliga stationerna syns som gula och röda prickar på kartan.

För musen över prickarna för att se namnen på stationerna.

Klicka sedan för att få väderrapporter och prognoser.

För att ändra kartan: Klicka på de gröna knapparna med ett svart kors på för att zooma in; den gröna knappen med ett streck på för att zooma ut; eller på de gröna pilarna för angränsande kartor.


METAR-TAF: